Aviation Digital Data Service (ADDS)

Output produced by METARs form (1048 UTC 18 January 2022)
found at http://www.aviationweather.gov/metar/data/
 
METAR text: RJGG 181030Z 34021KT 9999 FEW015 04/M02 Q1019 NOSIG
Conditions at: RJGG (NAGOYA/CHUBU , JP) observed 1030 UTC 18 January 2022
Temperature: 4.0°C (39°F)
Dewpoint: -2.0°C (28°F) [RH = 65%]
Pressure (altimeter): 30.09 inches Hg (1019.0 mb)
Winds: from the NNW (340 degrees) at 24 MPH (21 knots; 10.8 m/s)
Visibility: 6 or more miles (10+ km)
Ceiling: at least 12,000 feet AGL
Clouds: few clouds at 1500 feet AGL
Weather: no significant weather observed at this time

METAR text: RJGG 181000Z 33025KT 9999 FEW015 04/M02 Q1019 NOSIG
Conditions at: RJGG (NAGOYA/CHUBU , JP) observed 1000 UTC 18 January 2022
Temperature: 4.0°C (39°F)
Dewpoint: -2.0°C (28°F) [RH = 65%]
Pressure (altimeter): 30.09 inches Hg (1019.0 mb)
Winds: from the NNW (330 degrees) at 29 MPH (25 knots; 12.9 m/s)
Visibility: 6 or more miles (10+ km)
Ceiling: at least 12,000 feet AGL
Clouds: few clouds at 1500 feet AGL
Weather: no significant weather observed at this time

METAR text: RJGG 180930Z 33025KT 9999 FEW015 04/M02 Q1019 NOSIG
Conditions at: RJGG (NAGOYA/CHUBU , JP) observed 0930 UTC 18 January 2022
Temperature: 4.0°C (39°F)
Dewpoint: -2.0°C (28°F) [RH = 65%]
Pressure (altimeter): 30.09 inches Hg (1019.0 mb)
Winds: from the NNW (330 degrees) at 29 MPH (25 knots; 12.9 m/s)
Visibility: 6 or more miles (10+ km)
Ceiling: at least 12,000 feet AGL
Clouds: few clouds at 1500 feet AGL
Weather: no significant weather observed at this time

METAR text: RJGG 180900Z 33026KT 9999 FEW015 04/M02 Q1019 NOSIG
Conditions at: RJGG (NAGOYA/CHUBU , JP) observed 0900 UTC 18 January 2022
Temperature: 4.0°C (39°F)
Dewpoint: -2.0°C (28°F) [RH = 65%]
Pressure (altimeter): 30.09 inches Hg (1019.0 mb)
Winds: from the NNW (330 degrees) at 30 MPH (26 knots; 13.4 m/s)
Visibility: 6 or more miles (10+ km)
Ceiling: at least 12,000 feet AGL
Clouds: few clouds at 1500 feet AGL
Weather: no significant weather observed at this time

METAR text: RJGG 180830Z 32024KT 9999 FEW010 05/M01 Q1018 NOSIG
Conditions at: RJGG (NAGOYA/CHUBU , JP) observed 0830 UTC 18 January 2022
Temperature: 5.0°C (41°F)
Dewpoint: -1.0°C (30°F) [RH = 65%]
Pressure (altimeter): 30.06 inches Hg (1018.0 mb)
Winds: from the NW (320 degrees) at 28 MPH (24 knots; 12.3 m/s)
Visibility: 6 or more miles (10+ km)
Ceiling: at least 12,000 feet AGL
Clouds: few clouds at 1000 feet AGL
Weather: no significant weather observed at this time

METAR text: RJGG 180800Z 33026KT 9999 FEW010 SCT060 04/M02 Q1018 NOSIG
Conditions at: RJGG (NAGOYA/CHUBU , JP) observed 0800 UTC 18 January 2022
Temperature: 4.0°C (39°F)
Dewpoint: -2.0°C (28°F) [RH = 65%]
Pressure (altimeter): 30.06 inches Hg (1018.0 mb)
Winds: from the NNW (330 degrees) at 30 MPH (26 knots; 13.4 m/s)
Visibility: 6 or more miles (10+ km)
Ceiling: at least 12,000 feet AGL
Clouds: few clouds at 1000 feet AGL
scattered clouds at 6000 feet AGL
Weather: no significant weather observed at this time

METAR text: RJGG 180730Z 33022KT 9999 FEW015 SCT030 04/M01 Q1018 NOSIG
Conditions at: RJGG (NAGOYA/CHUBU , JP) observed 0730 UTC 18 January 2022
Temperature: 4.0°C (39°F)
Dewpoint: -1.0°C (30°F) [RH = 70%]
Pressure (altimeter): 30.06 inches Hg (1018.0 mb)
Winds: from the NNW (330 degrees) at 25 MPH (22 knots; 11.3 m/s)
Visibility: 6 or more miles (10+ km)
Ceiling: at least 12,000 feet AGL
Clouds: few clouds at 1500 feet AGL
scattered clouds at 3000 feet AGL
Weather: no significant weather observed at this time

METAR text: RJGG 180700Z 32025KT 9999 -SHRA FEW015 BKN030 04/00 Q1018 NOSIG
Conditions at: RJGG (NAGOYA/CHUBU , JP) observed 0700 UTC 18 January 2022
Temperature: 4.0°C (39°F)
Dewpoint: 0.0°C (32°F) [RH = 75%]
Pressure (altimeter): 30.06 inches Hg (1018.0 mb)
Winds: from the NW (320 degrees) at 29 MPH (25 knots; 12.9 m/s)
Visibility: 6 or more miles (10+ km)
Ceiling: 3000 feet AGL
Clouds: few clouds at 1500 feet AGL
broken clouds at 3000 feet AGL
Weather: -SHRA  (light rain showers)

METAR text: RJGG 180630Z 33022KT 9999 -SHRA FEW015 SCT030 05/00 Q1017 NOSIG
Conditions at: RJGG (NAGOYA/CHUBU , JP) observed 0630 UTC 18 January 2022
Temperature: 5.0°C (41°F)
Dewpoint: 0.0°C (32°F) [RH = 70%]
Pressure (altimeter): 30.03 inches Hg (1017.0 mb)
Winds: from the NNW (330 degrees) at 25 MPH (22 knots; 11.3 m/s)
Visibility: 6 or more miles (10+ km)
Ceiling: at least 12,000 feet AGL
Clouds: few clouds at 1500 feet AGL
scattered clouds at 3000 feet AGL
Weather: -SHRA  (light rain showers)

METAR text: RJGG 180600Z 33024KT 9999 -SHRA FEW015 SCT030 05/M00 Q1017 NOSIG
Conditions at: RJGG (NAGOYA/CHUBU , JP) observed 0600 UTC 18 January 2022
Temperature: 5.0°C (41°F)
Dewpoint: 0.0°C (32°F) [RH = 70%]
Pressure (altimeter): 30.03 inches Hg (1017.0 mb)
Winds: from the NNW (330 degrees) at 28 MPH (24 knots; 12.3 m/s)
Visibility: 6 or more miles (10+ km)
Ceiling: at least 12,000 feet AGL
Clouds: few clouds at 1500 feet AGL
scattered clouds at 3000 feet AGL
Weather: -SHRA  (light rain showers)

METAR text: RJGG 180530Z 32024KT 9999 FEW015 SCT030 05/01 Q1016 NOSIG
Conditions at: RJGG (NAGOYA/CHUBU , JP) observed 0530 UTC 18 January 2022
Temperature: 5.0°C (41°F)
Dewpoint: 1.0°C (34°F) [RH = 75%]
Pressure (altimeter): 30.00 inches Hg (1016.0 mb)
Winds: from the NW (320 degrees) at 28 MPH (24 knots; 12.3 m/s)
Visibility: 6 or more miles (10+ km)
Ceiling: at least 12,000 feet AGL
Clouds: few clouds at 1500 feet AGL
scattered clouds at 3000 feet AGL
Weather: no significant weather observed at this time

METAR text: RJGG 180500Z 31024KT 9999 VCSH FEW015 SCT030 06/00 Q1016 NOSIG
Conditions at: RJGG (NAGOYA/CHUBU , JP) observed 0500 UTC 18 January 2022
Temperature: 6.0°C (43°F)
Dewpoint: 0.0°C (32°F) [RH = 65%]
Pressure (altimeter): 30.00 inches Hg (1016.0 mb)
Winds: from the NW (310 degrees) at 28 MPH (24 knots; 12.3 m/s)
Visibility: 6 or more miles (10+ km)
Ceiling: at least 12,000 feet AGL
Clouds: few clouds at 1500 feet AGL
scattered clouds at 3000 feet AGL
Weather: VCSH  (showers in vicinity)

METAR text: RJGG 180430Z 32022KT 9999 -SHGS FEW006 BKN030 04/01 Q1016 NOSIG
Conditions at: RJGG (NAGOYA/CHUBU , JP) observed 0430 UTC 18 January 2022
Temperature: 4.0°C (39°F)
Dewpoint: 1.0°C (34°F) [RH = 81%]
Pressure (altimeter): 30.00 inches Hg (1016.0 mb)
Winds: from the NW (320 degrees) at 25 MPH (22 knots; 11.3 m/s)
Visibility: 6 or more miles (10+ km)
Ceiling: 3000 feet AGL
Clouds: few clouds at 600 feet AGL
broken clouds at 3000 feet AGL
Weather: -SHGS  (unknown weather)

METAR text: RJGG 180400Z 32023KT 9999 VCSH FEW015 SCT030 05/02 Q1016 NOSIG
Conditions at: RJGG (NAGOYA/CHUBU , JP) observed 0400 UTC 18 January 2022
Temperature: 5.0°C (41°F)
Dewpoint: 2.0°C (36°F) [RH = 81%]
Pressure (altimeter): 30.00 inches Hg (1016.0 mb)
Winds: from the NW (320 degrees) at 26 MPH (23 knots; 11.8 m/s)
Visibility: 6 or more miles (10+ km)
Ceiling: at least 12,000 feet AGL
Clouds: few clouds at 1500 feet AGL
scattered clouds at 3000 feet AGL
Weather: VCSH  (showers in vicinity)

METAR text: RJGG 180330Z 32023KT 9999 VCSH FEW015 05/M00 Q1016 NOSIG
Conditions at: RJGG (NAGOYA/CHUBU , JP) observed 0330 UTC 18 January 2022
Temperature: 5.0°C (41°F)
Dewpoint: 0.0°C (32°F) [RH = 70%]
Pressure (altimeter): 30.00 inches Hg (1016.0 mb)
Winds: from the NW (320 degrees) at 26 MPH (23 knots; 11.8 m/s)
Visibility: 6 or more miles (10+ km)
Ceiling: at least 12,000 feet AGL
Clouds: few clouds at 1500 feet AGL
Weather: VCSH  (showers in vicinity)

METAR text: RJGG 180300Z 32025KT 9999 VCSH FEW015 05/01 Q1016 NOSIG
Conditions at: RJGG (NAGOYA/CHUBU , JP) observed 0300 UTC 18 January 2022
Temperature: 5.0°C (41°F)
Dewpoint: 1.0°C (34°F) [RH = 75%]
Pressure (altimeter): 30.00 inches Hg (1016.0 mb)
Winds: from the NW (320 degrees) at 29 MPH (25 knots; 12.9 m/s)
Visibility: 6 or more miles (10+ km)
Ceiling: at least 12,000 feet AGL
Clouds: few clouds at 1500 feet AGL
Weather: VCSH  (showers in vicinity)

METAR text: RJGG 180230Z 31028KT 9999 VCSH FEW015 05/M00 Q1016 NOSIG
Conditions at: RJGG (NAGOYA/CHUBU , JP) observed 0230 UTC 18 January 2022
Temperature: 5.0°C (41°F)
Dewpoint: 0.0°C (32°F) [RH = 70%]
Pressure (altimeter): 30.00 inches Hg (1016.0 mb)
Winds: from the NW (310 degrees) at 32 MPH (28 knots; 14.4 m/s)
Visibility: 6 or more miles (10+ km)
Ceiling: at least 12,000 feet AGL
Clouds: few clouds at 1500 feet AGL
Weather: VCSH  (showers in vicinity)

METAR text: RJGG 180200Z 31028KT 9999 VCSH FEW015 06/M00 Q1016 NOSIG
Conditions at: RJGG (NAGOYA/CHUBU , JP) observed 0200 UTC 18 January 2022
Temperature: 6.0°C (43°F)
Dewpoint: 0.0°C (32°F) [RH = 65%]
Pressure (altimeter): 30.00 inches Hg (1016.0 mb)
Winds: from the NW (310 degrees) at 32 MPH (28 knots; 14.4 m/s)
Visibility: 6 or more miles (10+ km)
Ceiling: at least 12,000 feet AGL
Clouds: few clouds at 1500 feet AGL
Weather: VCSH  (showers in vicinity)

METAR text: RJGG 180130Z 31029KT 9999 VCSH FEW015 06/M01 Q1016 NOSIG
Conditions at: RJGG (NAGOYA/CHUBU , JP) observed 0130 UTC 18 January 2022
Temperature: 6.0°C (43°F)
Dewpoint: -1.0°C (30°F) [RH = 61%]
Pressure (altimeter): 30.00 inches Hg (1016.0 mb)
Winds: from the NW (310 degrees) at 33 MPH (29 knots; 14.9 m/s)
Visibility: 6 or more miles (10+ km)
Ceiling: at least 12,000 feet AGL
Clouds: few clouds at 1500 feet AGL
Weather: VCSH  (showers in vicinity)

METAR text: RJGG 180100Z 28019KT 9999 FEW015 06/M01 Q1016 NOSIG
Conditions at: RJGG (NAGOYA/CHUBU , JP) observed 0100 UTC 18 January 2022
Temperature: 6.0°C (43°F)
Dewpoint: -1.0°C (30°F) [RH = 61%]
Pressure (altimeter): 30.00 inches Hg (1016.0 mb)
Winds: from the W (280 degrees) at 22 MPH (19 knots; 9.8 m/s)
Visibility: 6 or more miles (10+ km)
Ceiling: at least 12,000 feet AGL
Clouds: few clouds at 1500 feet AGL
Weather: no significant weather observed at this time

METAR text: RJGG 180030Z 30021KT 9999 FEW015 BKN025 04/01 Q1016 NOSIG
Conditions at: RJGG (NAGOYA/CHUBU , JP) observed 0030 UTC 18 January 2022
Temperature: 4.0°C (39°F)
Dewpoint: 1.0°C (34°F) [RH = 81%]
Pressure (altimeter): 30.00 inches Hg (1016.0 mb)
Winds: from the WNW (300 degrees) at 24 MPH (21 knots; 10.8 m/s)
Visibility: 6 or more miles (10+ km)
Ceiling: 2500 feet AGL
Clouds: few clouds at 1500 feet AGL
broken clouds at 2500 feet AGL
Weather: no significant weather observed at this time

METAR text: RJGG 180000Z 34018KT 9999 -SHRASN FEW015 BKN030 04/M00 Q1016 NOSIG
Conditions at: RJGG (NAGOYA/CHUBU , JP) observed 0000 UTC 18 January 2022
Temperature: 4.0°C (39°F)
Dewpoint: 0.0°C (32°F) [RH = 75%]
Pressure (altimeter): 30.00 inches Hg (1016.0 mb)
Winds: from the NNW (340 degrees) at 21 MPH (18 knots; 9.3 m/s)
Visibility: 6 or more miles (10+ km)
Ceiling: 3000 feet AGL
Clouds: few clouds at 1500 feet AGL
broken clouds at 3000 feet AGL
Weather: -SHRA -SHSN  (light rain showers, light snow showers)

METAR text: RJGG 172330Z 29020KT 9999 -SHRASN FEW015 BKN035 04/M00 Q1016 NOSIG
Conditions at: RJGG (NAGOYA/CHUBU , JP) observed 2330 UTC 17 January 2022
Temperature: 4.0°C (39°F)
Dewpoint: 0.0°C (32°F) [RH = 75%]
Pressure (altimeter): 30.00 inches Hg (1016.0 mb)
Winds: from the WNW (290 degrees) at 23 MPH (20 knots; 10.3 m/s)
Visibility: 6 or more miles (10+ km)
Ceiling: 3500 feet AGL
Clouds: few clouds at 1500 feet AGL
broken clouds at 3500 feet AGL
Weather: -SHRA -SHSN  (light rain showers, light snow showers)

METAR text: RJGG 172300Z 29021KT 9999 FEW015 SCT030 BKN040 04/M01 Q1016 NOSIG
Conditions at: RJGG (NAGOYA/CHUBU , JP) observed 2300 UTC 17 January 2022
Temperature: 4.0°C (39°F)
Dewpoint: -1.0°C (30°F) [RH = 70%]
Pressure (altimeter): 30.00 inches Hg (1016.0 mb)
Winds: from the WNW (290 degrees) at 24 MPH (21 knots; 10.8 m/s)
Visibility: 6 or more miles (10+ km)
Ceiling: 4000 feet AGL
Clouds: few clouds at 1500 feet AGL
scattered clouds at 3000 feet AGL
broken clouds at 4000 feet AGL
Weather: no significant weather observed at this time

METAR text: RJGG 172230Z 29022KT 9999 FEW015 BKN035 05/M00 Q1016 NOSIG
Conditions at: RJGG (NAGOYA/CHUBU , JP) observed 2230 UTC 17 January 2022
Temperature: 5.0°C (41°F)
Dewpoint: 0.0°C (32°F) [RH = 70%]
Pressure (altimeter): 30.00 inches Hg (1016.0 mb)
Winds: from the WNW (290 degrees) at 25 MPH (22 knots; 11.3 m/s)
Visibility: 6 or more miles (10+ km)
Ceiling: 3500 feet AGL
Clouds: few clouds at 1500 feet AGL
broken clouds at 3500 feet AGL
Weather: no significant weather observed at this time

METAR text: RJGG 172200Z 29021KT 9999 FEW015 BKN035 04/M01 Q1016 NOSIG
Conditions at: RJGG (NAGOYA/CHUBU , JP) observed 2200 UTC 17 January 2022
Temperature: 4.0°C (39°F)
Dewpoint: -1.0°C (30°F) [RH = 70%]
Pressure (altimeter): 30.00 inches Hg (1016.0 mb)
Winds: from the WNW (290 degrees) at 24 MPH (21 knots; 10.8 m/s)
Visibility: 6 or more miles (10+ km)
Ceiling: 3500 feet AGL
Clouds: few clouds at 1500 feet AGL
broken clouds at 3500 feet AGL
Weather: no significant weather observed at this time

METAR text: RJGG 172130Z 29026KT 9999 FEW015 SCT035 BKN045 04/M01 Q1015 NOSIG
Conditions at: RJGG (NAGOYA/CHUBU , JP) observed 2130 UTC 17 January 2022
Temperature: 4.0°C (39°F)
Dewpoint: -1.0°C (30°F) [RH = 70%]
Pressure (altimeter): 29.97 inches Hg (1015.0 mb)
Winds: from the WNW (290 degrees) at 30 MPH (26 knots; 13.4 m/s)
Visibility: 6 or more miles (10+ km)
Ceiling: 4500 feet AGL
Clouds: few clouds at 1500 feet AGL
scattered clouds at 3500 feet AGL
broken clouds at 4500 feet AGL
Weather: no significant weather observed at this time

METAR text: RJGG 172100Z 29024KT 9999 FEW015 SCT035 BKN045 04/M01 Q1015 NOSIG
Conditions at: RJGG (NAGOYA/CHUBU , JP) observed 2100 UTC 17 January 2022
Temperature: 4.0°C (39°F)
Dewpoint: -1.0°C (30°F) [RH = 70%]
Pressure (altimeter): 29.97 inches Hg (1015.0 mb)
Winds: from the WNW (290 degrees) at 28 MPH (24 knots; 12.3 m/s)
Visibility: 6 or more miles (10+ km)
Ceiling: 4500 feet AGL
Clouds: few clouds at 1500 feet AGL
scattered clouds at 3500 feet AGL
broken clouds at 4500 feet AGL
Weather: no significant weather observed at this time

METAR text: RJGG 172030Z 28024KT 9999 -SHRASN FEW015 SCT025 BKN040 04/M01 Q1015 NOSIG
Conditions at: RJGG (NAGOYA/CHUBU , JP) observed 2030 UTC 17 January 2022
Temperature: 4.0°C (39°F)
Dewpoint: -1.0°C (30°F) [RH = 70%]
Pressure (altimeter): 29.97 inches Hg (1015.0 mb)
Winds: from the W (280 degrees) at 28 MPH (24 knots; 12.3 m/s)
Visibility: 6 or more miles (10+ km)
Ceiling: 4000 feet AGL
Clouds: few clouds at 1500 feet AGL
scattered clouds at 2500 feet AGL
broken clouds at 4000 feet AGL
Weather: -SHRA -SHSN  (light rain showers, light snow showers)

METAR text: RJGG 172000Z 28023KT 9999 FEW015 SCT025 BKN045 04/M01 Q1015 NOSIG
Conditions at: RJGG (NAGOYA/CHUBU , JP) observed 2000 UTC 17 January 2022
Temperature: 4.0°C (39°F)
Dewpoint: -1.0°C (30°F) [RH = 70%]
Pressure (altimeter): 29.97 inches Hg (1015.0 mb)
Winds: from the W (280 degrees) at 26 MPH (23 knots; 11.8 m/s)
Visibility: 6 or more miles (10+ km)
Ceiling: 4500 feet AGL
Clouds: few clouds at 1500 feet AGL
scattered clouds at 2500 feet AGL
broken clouds at 4500 feet AGL
Weather: no significant weather observed at this time

METAR text: RJGG 171930Z 27008KT 9999 FEW015 BKN025 04/M01 Q1015 NOSIG
Conditions at: RJGG (NAGOYA/CHUBU , JP) observed 1930 UTC 17 January 2022
Temperature: 4.0°C (39°F)
Dewpoint: -1.0°C (30°F) [RH = 70%]
Pressure (altimeter): 29.97 inches Hg (1015.0 mb)
Winds: from the W (270 degrees) at 9 MPH (8 knots; 4.1 m/s)
Visibility: 6 or more miles (10+ km)
Ceiling: 2500 feet AGL
Clouds: few clouds at 1500 feet AGL
broken clouds at 2500 feet AGL
Weather: no significant weather observed at this time

METAR text: RJGG 171900Z 30009KT 280V340 9999 -SHRASN FEW010 SCT025 BKN045 03/00 Q1015 NOSIG
Conditions at: RJGG (NAGOYA/CHUBU , JP) observed 1900 UTC 17 January 2022
Temperature: 3.0°C (37°F)
Dewpoint: 0.0°C (32°F) [RH = 81%]
Pressure (altimeter): 29.97 inches Hg (1015.0 mb)
Winds: from the WNW (300 degrees) at 10 MPH (9 knots; 4.6 m/s)
Visibility: 6 or more miles (10+ km)
Ceiling: 4500 feet AGL
Clouds: few clouds at 1000 feet AGL
scattered clouds at 2500 feet AGL
broken clouds at 4500 feet AGL
Weather: -SHRA -SHSN  (light rain showers, light snow showers)

METAR text: RJGG 171830Z 30011KT 9999 -SHRASN FEW010 SCT020 BKN050 03/01 Q1015 NOSIG
Conditions at: RJGG (NAGOYA/CHUBU , JP) observed 1830 UTC 17 January 2022
Temperature: 3.0°C (37°F)
Dewpoint: 1.0°C (34°F) [RH = 87%]
Pressure (altimeter): 29.97 inches Hg (1015.0 mb)
Winds: from the WNW (300 degrees) at 13 MPH (11 knots; 5.7 m/s)
Visibility: 6 or more miles (10+ km)
Ceiling: 5000 feet AGL
Clouds: few clouds at 1000 feet AGL
scattered clouds at 2000 feet AGL
broken clouds at 5000 feet AGL
Weather: -SHRA -SHSN  (light rain showers, light snow showers)

METAR text: RJGG 171800Z 30013KT 9999 -SHRASN FEW015 SCT025 BKN040 03/01 Q1015 NOSIG
Conditions at: RJGG (NAGOYA/CHUBU , JP) observed 1800 UTC 17 January 2022
Temperature: 3.0°C (37°F)
Dewpoint: 1.0°C (34°F) [RH = 87%]
Pressure (altimeter): 29.97 inches Hg (1015.0 mb)
Winds: from the WNW (300 degrees) at 15 MPH (13 knots; 6.7 m/s)
Visibility: 6 or more miles (10+ km)
Ceiling: 4000 feet AGL
Clouds: few clouds at 1500 feet AGL
scattered clouds at 2500 feet AGL
broken clouds at 4000 feet AGL
Weather: -SHRA -SHSN  (light rain showers, light snow showers)

METAR text: RJGG 171730Z 34016KT 9999 -SHRASN FEW012 SCT035 BKN045 02/M01 Q1015 NOSIG
Conditions at: RJGG (NAGOYA/CHUBU , JP) observed 1730 UTC 17 January 2022
Temperature: 2.0°C (36°F)
Dewpoint: -1.0°C (30°F) [RH = 80%]
Pressure (altimeter): 29.97 inches Hg (1015.0 mb)
Winds: from the NNW (340 degrees) at 18 MPH (16 knots; 8.2 m/s)
Visibility: 6 or more miles (10+ km)
Ceiling: 4500 feet AGL
Clouds: few clouds at 1200 feet AGL
scattered clouds at 3500 feet AGL
broken clouds at 4500 feet AGL
Weather: -SHRA -SHSN  (light rain showers, light snow showers)

METAR text: RJGG 171700Z 33019KT 9999 -SHRASN FEW018 SCT030 BKN040 03/01 Q1015 NOSIG
Conditions at: RJGG (NAGOYA/CHUBU , JP) observed 1700 UTC 17 January 2022
Temperature: 3.0°C (37°F)
Dewpoint: 1.0°C (34°F) [RH = 87%]
Pressure (altimeter): 29.97 inches Hg (1015.0 mb)
Winds: from the NNW (330 degrees) at 22 MPH (19 knots; 9.8 m/s)
Visibility: 6 or more miles (10+ km)
Ceiling: 4000 feet AGL
Clouds: few clouds at 1800 feet AGL
scattered clouds at 3000 feet AGL
broken clouds at 4000 feet AGL
Weather: -SHRA -SHSN  (light rain showers, light snow showers)

METAR text: RJGG 171630Z AUTO 34016KT 9999 -RASN FEW027 BKN033 04/01 Q1015 NOSIG
Conditions at: RJGG (NAGOYA/CHUBU , JP) observed 1630 UTC 17 January 2022
Temperature: 4.0°C (39°F)
Dewpoint: 1.0°C (34°F) [RH = 81%]
Pressure (altimeter): 29.97 inches Hg (1015.0 mb)
Winds: from the NNW (340 degrees) at 18 MPH (16 knots; 8.2 m/s)
Visibility: 6 or more miles (10+ km)
Ceiling: 3300 feet AGL
Clouds: few clouds at 2700 feet AGL
broken clouds at 3300 feet AGL
Weather: -RA -SN  (light rain, light snow)

METAR text: RJGG 171600Z AUTO 32020KT 9999 NCD 04/M01 Q1015 NOSIG
Conditions at: RJGG (NAGOYA/CHUBU , JP) observed 1600 UTC 17 January 2022
Temperature: 4.0°C (39°F)
Dewpoint: -1.0°C (30°F) [RH = 70%]
Pressure (altimeter): 29.97 inches Hg (1015.0 mb)
Winds: from the NW (320 degrees) at 23 MPH (20 knots; 10.3 m/s)
Visibility: 6 or more miles (10+ km)
Ceiling: at least 12,000 feet AGL
Clouds: sky clear below 12,000 feet AGL
Weather: no significant weather observed at this time

METAR text: RJGG 171530Z AUTO 32020KT 9999 FEW019 SCT050 BKN080 04/01 Q1015 NOSIG
Conditions at: RJGG (NAGOYA/CHUBU , JP) observed 1530 UTC 17 January 2022
Temperature: 4.0°C (39°F)
Dewpoint: 1.0°C (34°F) [RH = 81%]
Pressure (altimeter): 29.97 inches Hg (1015.0 mb)
Winds: from the NW (320 degrees) at 23 MPH (20 knots; 10.3 m/s)
Visibility: 6 or more miles (10+ km)
Ceiling: 8000 feet AGL
Clouds: few clouds at 1900 feet AGL
scattered clouds at 5000 feet AGL
broken clouds at 8000 feet AGL
Weather: no significant weather observed at this time

METAR text: RJGG 171500Z AUTO 35019KT 9999 FEW021 SCT027 BKN029 04/M01 Q1016 BECMG 29019KT
Conditions at: RJGG (NAGOYA/CHUBU , JP) observed 1500 UTC 17 January 2022
Temperature: 4.0°C (39°F)
Dewpoint: -1.0°C (30°F) [RH = 70%]
Pressure (altimeter): 30.00 inches Hg (1016.0 mb)
Winds: from the N (350 degrees) at 22 MPH (19 knots; 9.8 m/s)
Visibility: 6 or more miles (10+ km)
Ceiling: 2900 feet AGL
Clouds: few clouds at 2100 feet AGL
scattered clouds at 2700 feet AGL
broken clouds at 2900 feet AGL
Weather: no significant weather observed at this time

METAR text: RJGG 171430Z AUTO 30014KT 9999 FEW045 SCT048 BKN050 06/M01 Q1015 NOSIG
Conditions at: RJGG (NAGOYA/CHUBU , JP) observed 1430 UTC 17 January 2022
Temperature: 6.0°C (43°F)
Dewpoint: -1.0°C (30°F) [RH = 61%]
Pressure (altimeter): 29.97 inches Hg (1015.0 mb)
Winds: from the WNW (300 degrees) at 16 MPH (14 knots; 7.2 m/s)
Visibility: 6 or more miles (10+ km)
Ceiling: 5000 feet AGL
Clouds: few clouds at 4500 feet AGL
scattered clouds at 4800 feet AGL
broken clouds at 5000 feet AGL
Weather: no significant weather observed at this time

METAR text: RJGG 171400Z AUTO 29017KT 9999 BKN050 06/M03 Q1016 NOSIG
Conditions at: RJGG (NAGOYA/CHUBU , JP) observed 1400 UTC 17 January 2022
Temperature: 6.0°C (43°F)
Dewpoint: -3.0°C (27°F) [RH = 52%]
Pressure (altimeter): 30.00 inches Hg (1016.0 mb)
Winds: from the WNW (290 degrees) at 20 MPH (17 knots; 8.7 m/s)
Visibility: 6 or more miles (10+ km)
Ceiling: 5000 feet AGL
Clouds: broken clouds at 5000 feet AGL
Weather: no significant weather observed at this time

METAR text: RJGG 171330Z 29024KT 9999 FEW030 SCT050 06/M02 Q1015 NOSIG
Conditions at: RJGG (NAGOYA/CHUBU , JP) observed 1330 UTC 17 January 2022
Temperature: 6.0°C (43°F)
Dewpoint: -2.0°C (28°F) [RH = 56%]
Pressure (altimeter): 29.97 inches Hg (1015.0 mb)
Winds: from the WNW (290 degrees) at 28 MPH (24 knots; 12.3 m/s)
Visibility: 6 or more miles (10+ km)
Ceiling: at least 12,000 feet AGL
Clouds: few clouds at 3000 feet AGL
scattered clouds at 5000 feet AGL
Weather: no significant weather observed at this time

METAR text: RJGG 171300Z 29027KT 9999 FEW030 06/M03 Q1015 NOSIG
Conditions at: RJGG (NAGOYA/CHUBU , JP) observed 1300 UTC 17 January 2022
Temperature: 6.0°C (43°F)
Dewpoint: -3.0°C (27°F) [RH = 52%]
Pressure (altimeter): 29.97 inches Hg (1015.0 mb)
Winds: from the WNW (290 degrees) at 31 MPH (27 knots; 13.9 m/s)
Visibility: 6 or more miles (10+ km)
Ceiling: at least 12,000 feet AGL
Clouds: few clouds at 3000 feet AGL
Weather: no significant weather observed at this time

METAR text: RJGG 171230Z 28027KT 9999 FEW030 07/M03 Q1014 NOSIG
Conditions at: RJGG (NAGOYA/CHUBU , JP) observed 1230 UTC 17 January 2022
Temperature: 7.0°C (45°F)
Dewpoint: -3.0°C (27°F) [RH = 49%]
Pressure (altimeter): 29.94 inches Hg (1014.0 mb)
Winds: from the W (280 degrees) at 31 MPH (27 knots; 13.9 m/s)
Visibility: 6 or more miles (10+ km)
Ceiling: at least 12,000 feet AGL
Clouds: few clouds at 3000 feet AGL
Weather: no significant weather observed at this time

METAR text: RJGG 171200Z 29024KT 9999 FEW030 07/M01 Q1015 NOSIG
Conditions at: RJGG (NAGOYA/CHUBU , JP) observed 1200 UTC 17 January 2022
Temperature: 7.0°C (45°F)
Dewpoint: -1.0°C (30°F) [RH = 57%]
Pressure (altimeter): 29.97 inches Hg (1015.0 mb)
Winds: from the WNW (290 degrees) at 28 MPH (24 knots; 12.3 m/s)
Visibility: 6 or more miles (10+ km)
Ceiling: at least 12,000 feet AGL
Clouds: few clouds at 3000 feet AGL
Weather: no significant weather observed at this time

METAR text: RJGG 171130Z 29023KT 9999 FEW030 07/M00 Q1015 NOSIG
Conditions at: RJGG (NAGOYA/CHUBU , JP) observed 1130 UTC 17 January 2022
Temperature: 7.0°C (45°F)
Dewpoint: 0.0°C (32°F) [RH = 61%]
Pressure (altimeter): 29.97 inches Hg (1015.0 mb)
Winds: from the WNW (290 degrees) at 26 MPH (23 knots; 11.8 m/s)
Visibility: 6 or more miles (10+ km)
Ceiling: at least 12,000 feet AGL
Clouds: few clouds at 3000 feet AGL
Weather: no significant weather observed at this time

METAR text: RJGG 171100Z 30020KT 9999 FEW030 07/00 Q1015 NOSIG
Conditions at: RJGG (NAGOYA/CHUBU , JP) observed 1100 UTC 17 January 2022
Temperature: 7.0°C (45°F)
Dewpoint: 0.0°C (32°F) [RH = 61%]
Pressure (altimeter): 29.97 inches Hg (1015.0 mb)
Winds: from the WNW (300 degrees) at 23 MPH (20 knots; 10.3 m/s)
Visibility: 6 or more miles (10+ km)
Ceiling: at least 12,000 feet AGL
Clouds: few clouds at 3000 feet AGL
Weather: no significant weather observed at this time

METAR text: RJGG 171030Z 31021KT 9999 FEW030 07/01 Q1015 NOSIG
Conditions at: RJGG (NAGOYA/CHUBU , JP) observed 1030 UTC 17 January 2022
Temperature: 7.0°C (45°F)
Dewpoint: 1.0°C (34°F) [RH = 66%]
Pressure (altimeter): 29.97 inches Hg (1015.0 mb)
Winds: from the NW (310 degrees) at 24 MPH (21 knots; 10.8 m/s)
Visibility: 6 or more miles (10+ km)
Ceiling: at least 12,000 feet AGL
Clouds: few clouds at 3000 feet AGL
Weather: no significant weather observed at this time

METAR text: RJGG 171000Z 32019KT 9999 FEW030 07/01 Q1015 NOSIG
Conditions at: RJGG (NAGOYA/CHUBU , JP) observed 1000 UTC 17 January 2022
Temperature: 7.0°C (45°F)
Dewpoint: 1.0°C (34°F) [RH = 66%]
Pressure (altimeter): 29.97 inches Hg (1015.0 mb)
Winds: from the NW (320 degrees) at 22 MPH (19 knots; 9.8 m/s)
Visibility: 6 or more miles (10+ km)
Ceiling: at least 12,000 feet AGL
Clouds: few clouds at 3000 feet AGL
Weather: no significant weather observed at this time

METAR text: RJGG 170930Z 35013KT 9999 FEW030 SCT050 06/M00 Q1015 BECMG 28023KT
Conditions at: RJGG (NAGOYA/CHUBU , JP) observed 0930 UTC 17 January 2022
Temperature: 6.0°C (43°F)
Dewpoint: 0.0°C (32°F) [RH = 65%]
Pressure (altimeter): 29.97 inches Hg (1015.0 mb)
Winds: from the N (350 degrees) at 15 MPH (13 knots; 6.7 m/s)
Visibility: 6 or more miles (10+ km)
Ceiling: at least 12,000 feet AGL
Clouds: few clouds at 3000 feet AGL
scattered clouds at 5000 feet AGL
Weather: no significant weather observed at this time

METAR text: RJGG 170900Z 32017KT 9999 FEW030 SCT050 06/01 Q1015 NOSIG
Conditions at: RJGG (NAGOYA/CHUBU , JP) observed 0900 UTC 17 January 2022
Temperature: 6.0°C (43°F)
Dewpoint: 1.0°C (34°F) [RH = 70%]
Pressure (altimeter): 29.97 inches Hg (1015.0 mb)
Winds: from the NW (320 degrees) at 20 MPH (17 knots; 8.7 m/s)
Visibility: 6 or more miles (10+ km)
Ceiling: at least 12,000 feet AGL
Clouds: few clouds at 3000 feet AGL
scattered clouds at 5000 feet AGL
Weather: no significant weather observed at this time

METAR text: RJGG 170830Z 33018KT 9999 FEW030 07/02 Q1015 NOSIG
Conditions at: RJGG (NAGOYA/CHUBU , JP) observed 0830 UTC 17 January 2022
Temperature: 7.0°C (45°F)
Dewpoint: 2.0°C (36°F) [RH = 70%]
Pressure (altimeter): 29.97 inches Hg (1015.0 mb)
Winds: from the NNW (330 degrees) at 21 MPH (18 knots; 9.3 m/s)
Visibility: 6 or more miles (10+ km)
Ceiling: at least 12,000 feet AGL
Clouds: few clouds at 3000 feet AGL
Weather: no significant weather observed at this time

METAR text: RJGG 170800Z 33019KT 9999 FEW030 08/02 Q1014 NOSIG
Conditions at: RJGG (NAGOYA/CHUBU , JP) observed 0800 UTC 17 January 2022
Temperature: 8.0°C (46°F)
Dewpoint: 2.0°C (36°F) [RH = 66%]
Pressure (altimeter): 29.94 inches Hg (1014.0 mb)
Winds: from the NNW (330 degrees) at 22 MPH (19 knots; 9.8 m/s)
Visibility: 6 or more miles (10+ km)
Ceiling: at least 12,000 feet AGL
Clouds: few clouds at 3000 feet AGL
Weather: no significant weather observed at this time

METAR text: RJGG 170730Z 31019KT 9999 FEW030 08/02 Q1015 NOSIG
Conditions at: RJGG (NAGOYA/CHUBU , JP) observed 0730 UTC 17 January 2022
Temperature: 8.0°C (46°F)
Dewpoint: 2.0°C (36°F) [RH = 66%]
Pressure (altimeter): 29.97 inches Hg (1015.0 mb)
Winds: from the NW (310 degrees) at 22 MPH (19 knots; 9.8 m/s)
Visibility: 6 or more miles (10+ km)
Ceiling: at least 12,000 feet AGL
Clouds: few clouds at 3000 feet AGL
Weather: no significant weather observed at this time

METAR text: RJGG 170700Z 30021KT 9999 FEW030 SCT/// 09/00 Q1014 NOSIG
Conditions at: RJGG (NAGOYA/CHUBU , JP) observed 0700 UTC 17 January 2022
Temperature: 9.0°C (48°F)
Dewpoint: 0.0°C (32°F) [RH = 53%]
Pressure (altimeter): 29.94 inches Hg (1014.0 mb)
Winds: from the WNW (300 degrees) at 24 MPH (21 knots; 10.8 m/s)
Visibility: 6 or more miles (10+ km)
Ceiling: at least 12,000 feet AGL
Clouds: few clouds at 3000 feet AGL
Weather: no significant weather observed at this time

METAR text: RJGG 170630Z 29025KT 9999 FEW030 BKN/// 10/M00 Q1014 NOSIG
Conditions at: RJGG (NAGOYA/CHUBU , JP) observed 0630 UTC 17 January 2022
Temperature: 10.0°C (50°F)
Dewpoint: 0.0°C (32°F) [RH = 50%]
Pressure (altimeter): 29.94 inches Hg (1014.0 mb)
Winds: from the WNW (290 degrees) at 29 MPH (25 knots; 12.9 m/s)
Visibility: 6 or more miles (10+ km)
Ceiling: at least 12,000 feet AGL
Clouds: few clouds at 3000 feet AGL
Weather: no significant weather observed at this time

METAR text: RJGG 170600Z 28023KT 9999 FEW030 BKN/// 10/01 Q1013 NOSIG
Conditions at: RJGG (NAGOYA/CHUBU , JP) observed 0600 UTC 17 January 2022
Temperature: 10.0°C (50°F)
Dewpoint: 1.0°C (34°F) [RH = 53%]
Pressure (altimeter): 29.91 inches Hg (1013.0 mb)
Winds: from the W (280 degrees) at 26 MPH (23 knots; 11.8 m/s)
Visibility: 6 or more miles (10+ km)
Ceiling: at least 12,000 feet AGL
Clouds: few clouds at 3000 feet AGL
Weather: no significant weather observed at this time

METAR text: RJGG 170530Z 28023KT 9999 FEW030 BKN/// 09/M01 Q1013 NOSIG
Conditions at: RJGG (NAGOYA/CHUBU , JP) observed 0530 UTC 17 January 2022
Temperature: 9.0°C (48°F)
Dewpoint: -1.0°C (30°F) [RH = 49%]
Pressure (altimeter): 29.91 inches Hg (1013.0 mb)
Winds: from the W (280 degrees) at 26 MPH (23 knots; 11.8 m/s)
Visibility: 6 or more miles (10+ km)
Ceiling: at least 12,000 feet AGL
Clouds: few clouds at 3000 feet AGL
Weather: no significant weather observed at this time

METAR text: RJGG 170500Z 28023KT 9999 FEW030 BKN/// 10/00 Q1013 NOSIG
Conditions at: RJGG (NAGOYA/CHUBU , JP) observed 0500 UTC 17 January 2022
Temperature: 10.0°C (50°F)
Dewpoint: 0.0°C (32°F) [RH = 50%]
Pressure (altimeter): 29.91 inches Hg (1013.0 mb)
Winds: from the W (280 degrees) at 26 MPH (23 knots; 11.8 m/s)
Visibility: 6 or more miles (10+ km)
Ceiling: at least 12,000 feet AGL
Clouds: few clouds at 3000 feet AGL
Weather: no significant weather observed at this time

METAR text: RJGG 170430Z 28022KT 9999 FEW030 BKN/// 10/00 Q1014 NOSIG
Conditions at: RJGG (NAGOYA/CHUBU , JP) observed 0430 UTC 17 January 2022
Temperature: 10.0°C (50°F)
Dewpoint: 0.0°C (32°F) [RH = 50%]
Pressure (altimeter): 29.94 inches Hg (1014.0 mb)
Winds: from the W (280 degrees) at 25 MPH (22 knots; 11.3 m/s)
Visibility: 6 or more miles (10+ km)
Ceiling: at least 12,000 feet AGL
Clouds: few clouds at 3000 feet AGL
Weather: no significant weather observed at this time

METAR text: RJGG 170400Z 28023KT 9999 FEW030 BKN/// 10/M01 Q1014 NOSIG
Conditions at: RJGG (NAGOYA/CHUBU , JP) observed 0400 UTC 17 January 2022
Temperature: 10.0°C (50°F)
Dewpoint: -1.0°C (30°F) [RH = 46%]
Pressure (altimeter): 29.94 inches Hg (1014.0 mb)
Winds: from the W (280 degrees) at 26 MPH (23 knots; 11.8 m/s)
Visibility: 6 or more miles (10+ km)
Ceiling: at least 12,000 feet AGL
Clouds: few clouds at 3000 feet AGL
Weather: no significant weather observed at this time

METAR text: RJGG 170330Z 28024KT 9999 FEW030 BKN/// 10/M01 Q1015 NOSIG
Conditions at: RJGG (NAGOYA/CHUBU , JP) observed 0330 UTC 17 January 2022
Temperature: 10.0°C (50°F)
Dewpoint: -1.0°C (30°F) [RH = 46%]
Pressure (altimeter): 29.97 inches Hg (1015.0 mb)
Winds: from the W (280 degrees) at 28 MPH (24 knots; 12.3 m/s)
Visibility: 6 or more miles (10+ km)
Ceiling: at least 12,000 feet AGL
Clouds: few clouds at 3000 feet AGL
Weather: no significant weather observed at this time

METAR text: RJGG 170300Z 29014KT 9999 FEW030 SCT050 BKN/// 09/00 Q1015 NOSIG
Conditions at: RJGG (NAGOYA/CHUBU , JP) observed 0300 UTC 17 January 2022
Temperature: 9.0°C (48°F)
Dewpoint: 0.0°C (32°F) [RH = 53%]
Pressure (altimeter): 29.97 inches Hg (1015.0 mb)
Winds: from the WNW (290 degrees) at 16 MPH (14 knots; 7.2 m/s)
Visibility: 6 or more miles (10+ km)
Ceiling: at least 12,000 feet AGL
Clouds: few clouds at 3000 feet AGL
scattered clouds at 5000 feet AGL
Weather: no significant weather observed at this time

METAR text: RJGG 170230Z 29013KT 9999 FEW030 BKN050 BKN/// 08/M01 Q1016 NOSIG
Conditions at: RJGG (NAGOYA/CHUBU , JP) observed 0230 UTC 17 January 2022
Temperature: 8.0°C (46°F)
Dewpoint: -1.0°C (30°F) [RH = 53%]
Pressure (altimeter): 30.00 inches Hg (1016.0 mb)
Winds: from the WNW (290 degrees) at 15 MPH (13 knots; 6.7 m/s)
Visibility: 6 or more miles (10+ km)
Ceiling: 5000 feet AGL
Clouds: few clouds at 3000 feet AGL
broken clouds at 5000 feet AGL
Weather: no significant weather observed at this time

METAR text: RJGG 170200Z 27008KT 230V300 9999 FEW030 BKN/// 08/M02 Q1017 NOSIG
Conditions at: RJGG (NAGOYA/CHUBU , JP) observed 0200 UTC 17 January 2022
Temperature: 8.0°C (46°F)
Dewpoint: -2.0°C (28°F) [RH = 49%]
Pressure (altimeter): 30.03 inches Hg (1017.0 mb)
Winds: from the W (270 degrees) at 9 MPH (8 knots; 4.1 m/s)
Visibility: 6 or more miles (10+ km)
Ceiling: at least 12,000 feet AGL
Clouds: few clouds at 3000 feet AGL
Weather: no significant weather observed at this time

METAR text: RJGG 170130Z 27018KT 9999 FEW030 BKN/// 09/M00 Q1017 NOSIG
Conditions at: RJGG (NAGOYA/CHUBU , JP) observed 0130 UTC 17 January 2022
Temperature: 9.0°C (48°F)
Dewpoint: 0.0°C (32°F) [RH = 53%]
Pressure (altimeter): 30.03 inches Hg (1017.0 mb)
Winds: from the W (270 degrees) at 21 MPH (18 knots; 9.3 m/s)
Visibility: 6 or more miles (10+ km)
Ceiling: at least 12,000 feet AGL
Clouds: few clouds at 3000 feet AGL
Weather: no significant weather observed at this time

METAR text: RJGG 170100Z 27018KT 9999 FEW030 BKN/// 08/M00 Q1017 NOSIG
Conditions at: RJGG (NAGOYA/CHUBU , JP) observed 0100 UTC 17 January 2022
Temperature: 8.0°C (46°F)
Dewpoint: 0.0°C (32°F) [RH = 57%]
Pressure (altimeter): 30.03 inches Hg (1017.0 mb)
Winds: from the W (270 degrees) at 21 MPH (18 knots; 9.3 m/s)
Visibility: 6 or more miles (10+ km)
Ceiling: at least 12,000 feet AGL
Clouds: few clouds at 3000 feet AGL
Weather: no significant weather observed at this time

METAR text: RJGG 170030Z 27018KT 9999 FEW030 BKN/// 08/00 Q1017 NOSIG
Conditions at: RJGG (NAGOYA/CHUBU , JP) observed 0030 UTC 17 January 2022
Temperature: 8.0°C (46°F)
Dewpoint: 0.0°C (32°F) [RH = 57%]
Pressure (altimeter): 30.03 inches Hg (1017.0 mb)
Winds: from the W (270 degrees) at 21 MPH (18 knots; 9.3 m/s)
Visibility: 6 or more miles (10+ km)
Ceiling: at least 12,000 feet AGL
Clouds: few clouds at 3000 feet AGL
Weather: no significant weather observed at this time

METAR text: RJGG 170000Z 28018KT 9999 FEW030 BKN/// 08/00 Q1018 NOSIG
Conditions at: RJGG (NAGOYA/CHUBU , JP) observed 0000 UTC 17 January 2022
Temperature: 8.0°C (46°F)
Dewpoint: 0.0°C (32°F) [RH = 57%]
Pressure (altimeter): 30.06 inches Hg (1018.0 mb)
Winds: from the W (280 degrees) at 21 MPH (18 knots; 9.3 m/s)
Visibility: 6 or more miles (10+ km)
Ceiling: at least 12,000 feet AGL
Clouds: few clouds at 3000 feet AGL
Weather: no significant weather observed at this time

METAR text: RJGG 162330Z 28018KT 9999 FEW030 BKN/// 08/00 Q1018 NOSIG
Conditions at: RJGG (NAGOYA/CHUBU , JP) observed 2330 UTC 16 January 2022
Temperature: 8.0°C (46°F)
Dewpoint: 0.0°C (32°F) [RH = 57%]
Pressure (altimeter): 30.06 inches Hg (1018.0 mb)
Winds: from the W (280 degrees) at 21 MPH (18 knots; 9.3 m/s)
Visibility: 6 or more miles (10+ km)
Ceiling: at least 12,000 feet AGL
Clouds: few clouds at 3000 feet AGL
Weather: no significant weather observed at this time

METAR text: RJGG 162300Z 27018KT 9999 FEW030 SCT050 BKN/// 08/01 Q1017 NOSIG
Conditions at: RJGG (NAGOYA/CHUBU , JP) observed 2300 UTC 16 January 2022
Temperature: 8.0°C (46°F)
Dewpoint: 1.0°C (34°F) [RH = 61%]
Pressure (altimeter): 30.03 inches Hg (1017.0 mb)
Winds: from the W (270 degrees) at 21 MPH (18 knots; 9.3 m/s)
Visibility: 6 or more miles (10+ km)
Ceiling: at least 12,000 feet AGL
Clouds: few clouds at 3000 feet AGL
scattered clouds at 5000 feet AGL
Weather: no significant weather observed at this time

Forecast for: RJGG (NAGOYA/CHUBU , JP)
Text: TAF RJGG 180505Z 1806/1912 32026KT 9999 FEW025 SCT050
Forecast period: 0600 to 1500 UTC 18 January 2022
Forecast type: FROM: standard forecast or significant change
Winds: from the NW (320 degrees) at 30 MPH (26 knots; 13.4 m/s)
Visibility: 6 or more miles (10+ km)
Ceiling: at least 12,000 feet AGL
Clouds: few clouds at 2500 feet AGL
scattered clouds at 5000 feet AGL
Weather: no significant weather forecast for this period
Text: BECMG 1815/1817 32014KT
Forecast period: 1500 UTC 18 January 2022 to 1200 UTC 19 January 2022
Forecast type: BECOMING: Conditions expected to become as follows by 1700 UTC 18 January 2022
Winds: from the NW (320 degrees) at 16 MPH (14 knots; 7.2 m/s)
Visibility: 6 or more miles (10+ km)
Ceiling: at least 12,000 feet AGL
Clouds: few clouds at 2500 feet AGL
scattered clouds at 5000 feet AGL
Weather: no significant weather forecast for this period